Time;durP1;ratioP1;P1;durP2;ratioP2;P2;SDS_P1;SDS_P2;PMS_P1;PMS_P2;Temp;Humidity;BMP_temperature;BMP_pressure;BME280_temperature;BME280_humidity;BME280_pressure;Samples;Min_cycle;Max_cycle;Signal;HPM_P1;HPM_P2
2022/11/18 00:01:59;;;;;;;4.57;4.18;;;;;;;;;;5013689;28;20097;-73
2022/11/18 00:04:24;;;;;;;5.38;4.88;;;;;;;;;;5014146;28;20053;-73
2022/11/18 00:06:50;;;;;;;5.07;4.60;;;;;;;;;;5013392;28;20018;-73
2022/11/18 00:09:15;;;;;;;4.25;3.90;;;;;;;;;;5012027;28;20045;-73
2022/11/18 00:14:26;;;;;;;4.80;4.40;;;;;;;;;;5013382;28;20034;-73
2022/11/18 00:16:51;;;;;;;3.90;3.60;;;;;;;;;;5013553;28;20175;-73
2022/11/18 00:19:18;;;;;;;3.70;3.40;;;;;;;;;;5012398;28;20169;-73
2022/11/18 00:21:43;;;;;;;8.77;5.35;;;;;;;;;;5014706;28;20014;-72
2022/11/18 00:24:09;;;;;;;4.90;3.65;;;;;;;;;;5015728;28;20060;-73
2022/11/18 00:26:35;;;;;;;4.82;4.30;;;;;;;;;;5016751;28;20037;-73
2022/11/18 00:29:01;;;;;;;4.75;4.30;;;;;;;;;;5015466;28;20152;-73
2022/11/18 00:31:27;;;;;;;4.47;4.07;;;;;;;;;;5016611;28;20559;-73
2022/11/18 00:33:52;;;;;;;4.18;3.88;;;;;;;;;;5015831;28;20026;-73
2022/11/18 00:36:17;;;;;;;3.33;3.13;;;;;;;;;;5015421;28;20018;-73
2022/11/18 00:38:43;;;;;;;3.80;3.58;;;;;;;;;;5016446;28;20524;-73
2022/11/18 00:41:13;;;;;;;3.85;3.55;;;;;;;;;;4998851;28;20052;-73
2022/11/18 00:43:38;;;;;;;3.70;3.40;;;;;;;;;;5016412;28;20056;-73
2022/11/18 00:46:05;;;;;;;3.90;3.60;;;;;;;;;;5016663;28;20061;-74
2022/11/18 00:48:34;;;;;;;4.18;3.78;;;;;;;;;;5015922;28;20038;-73
2022/11/18 00:51:06;;;;;;;4.10;3.80;;;;;;;;;;5015583;28;20036;-73
2022/11/18 00:53:32;;;;;;;5.05;4.07;;;;;;;;;;5016205;28;20073;-73
2022/11/18 00:55:57;;;;;;;4.82;3.80;;;;;;;;;;5016252;28;20021;-74
2022/11/18 00:58:22;;;;;;;4.10;3.80;;;;;;;;;;5014980;28;20068;-73
2022/11/18 01:00:49;;;;;;;4.30;3.92;;;;;;;;;;5016141;28;20075;-73
2022/11/18 01:03:15;;;;;;;4.43;3.78;;;;;;;;;;5016132;28;20021;-73
2022/11/18 01:05:40;;;;;;;4.50;4.10;;;;;;;;;;5016726;28;20018;-73
2022/11/18 01:08:07;;;;;;;4.10;3.75;;;;;;;;;;5017286;28;20458;-74
2022/11/18 01:10:32;;;;;;;4.25;3.95;;;;;;;;;;5015664;28;20025;-73
2022/11/18 01:15:58;;;;;;;3.90;3.60;;;;;;;;;;4956161;29;20043;-73
2022/11/18 01:18:25;;;;;;;3.42;3.22;;;;;;;;;;5003495;28;20389;-73
2022/11/18 01:20:51;;;;;;;4.47;4.07;;;;;;;;;;5015740;28;20462;-73
2022/11/18 01:23:17;;;;;;;3.65;3.35;;;;;;;;;;5015761;28;20042;-72
2022/11/18 01:25:44;;;;;;;3.78;3.47;;;;;;;;;;5015796;28;20109;-72
2022/11/18 01:28:11;;;;;;;3.83;3.53;;;;;;;;;;5015618;28;20088;-73
2022/11/18 01:30:37;;;;;;;3.40;3.20;;;;;;;;;;5015522;28;20034;-74
2022/11/18 01:33:03;;;;;;;3.10;2.90;;;;;;;;;;5014473;28;20072;-73
2022/11/18 01:35:39;;;;;;;3.63;3.35;;;;;;;;;;5015686;28;20030;-73
2022/11/18 01:38:06;;;;;;;4.63;3.35;;;;;;;;;;5016054;28;20022;-73
2022/11/18 01:40:31;;;;;;;3.58;3.28;;;;;;;;;;5016370;28;20046;-73
2022/11/18 01:42:57;;;;;;;3.78;3.47;;;;;;;;;;5014684;28;20470;-73
2022/11/18 01:45:22;;;;;;;3.47;3.28;;;;;;;;;;5015260;28;20073;-73
2022/11/18 01:47:57;;;;;;;3.70;3.40;;;;;;;;;;5015217;28;20116;-73
2022/11/18 01:50:22;;;;;;;4.03;3.63;;;;;;;;;;5013943;28;20509;-73
2022/11/18 01:52:48;;;;;;;3.10;2.90;;;;;;;;;;5015218;28;20050;-73
2022/11/18 01:55:20;;;;;;;3.45;3.25;;;;;;;;;;5013906;28;20049;-73
2022/11/18 01:57:46;;;;;;;3.25;3.05;;;;;;;;;;5015341;28;20030;-73
2022/11/18 02:00:12;;;;;;;3.85;3.15;;;;;;;;;;5015289;28;20455;-73
2022/11/18 02:02:39;;;;;;;3.38;3.08;;;;;;;;;;5014952;28;20022;-73
2022/11/18 02:05:05;;;;;;;3.90;3.60;;;;;;;;;;5013647;28;20024;-73
2022/11/18 02:07:36;;;;;;;4.05;3.75;;;;;;;;;;5013602;28;20121;-71
2022/11/18 02:10:04;;;;;;;3.72;3.53;;;;;;;;;;5015148;28;20429;-71
2022/11/18 02:12:29;;;;;;;3.90;3.60;;;;;;;;;;5013538;28;20433;-71
2022/11/18 02:14:54;;;;;;;3.80;3.50;;;;;;;;;;5014883;28;20030;-71
2022/11/18 02:17:35;;;;;;;3.88;3.58;;;;;;;;;;5015037;28;20426;-73
2022/11/18 02:20:01;;;;;;;4.72;3.50;;;;;;;;;;5013791;28;20030;-73
2022/11/18 02:22:45;;;;;;;3.63;3.35;;;;;;;;;;5013367;28;20109;-73
2022/11/18 02:25:16;;;;;;;4.65;3.90;;;;;;;;;;5012265;28;20053;-73
2022/11/18 02:27:51;;;;;;;3.85;3.55;;;;;;;;;;5013278;28;20029;-73
2022/11/18 02:30:17;;;;;;;3.70;3.40;;;;;;;;;;5014243;28;20101;-73
2022/11/18 02:32:49;;;;;;;3.90;3.50;;;;;;;;;;5014440;28;20501;-74
2022/11/18 02:35:18;;;;;;;4.07;3.70;;;;;;;;;;5013069;28;20033;-74
2022/11/18 02:37:49;;;;;;;3.67;3.47;;;;;;;;;;5013165;28;20053;-74
2022/11/18 02:40:24;;;;;;;3.75;3.47;;;;;;;;;;5014628;28;20032;-74
2022/11/18 02:42:53;;;;;;;3.75;3.45;;;;;;;;;;5014583;28;20038;-74
2022/11/18 02:45:19;;;;;;;4.10;3.70;;;;;;;;;;5012712;28;20024;-73
2022/11/18 02:47:46;;;;;;;4.50;4.20;;;;;;;;;;5013440;28;20129;-73
2022/11/18 02:50:15;;;;;;;4.00;3.55;;;;;;;;;;5014191;28;20034;-73
2022/11/18 02:52:41;;;;;;;4.18;3.88;;;;;;;;;;5014469;28;20505;-73
2022/11/18 02:55:09;;;;;;;4.10;3.80;;;;;;;;;;5014037;28;20021;-73
2022/11/18 02:57:35;;;;;;;4.10;3.80;;;;;;;;;;5014065;28;20018;-73
2022/11/18 03:00:00;;;;;;;4.40;4.10;;;;;;;;;;5014540;28;20386;-73
2022/11/18 03:02:26;;;;;;;5.05;4.00;;;;;;;;;;5014282;28;20066;-74
2022/11/18 03:04:54;;;;;;;4.65;4.25;;;;;;;;;;5014267;28;20080;-73
2022/11/18 03:07:22;;;;;;;5.28;4.78;;;;;;;;;;5013082;28;20033;-73
2022/11/18 03:09:50;;;;;;;4.68;4.28;;;;;;;;;;5013883;28;20022;-73
2022/11/18 03:12:34;;;;;;;4.70;4.30;;;;;;;;;;5014203;28;20477;-73
2022/11/18 03:15:17;;;;;;;6.00;5.47;;;;;;;;;;5014323;28;20033;-73
2022/11/18 03:17:54;;;;;;;5.60;5.10;;;;;;;;;;5014097;28;20385;-73
2022/11/18 03:20:20;;;;;;;5.25;4.60;;;;;;;;;;5012494;28;20058;-73
2022/11/18 03:22:45;;;;;;;5.45;4.95;;;;;;;;;;5013806;28;20057;-73
2022/11/18 03:25:17;;;;;;;5.72;5.22;;;;;;;;;;5012358;28;20065;-73
2022/11/18 03:27:49;;;;;;;5.13;4.72;;;;;;;;;;5014047;28;20033;-74
2022/11/18 03:30:15;;;;;;;6.18;5.68;;;;;;;;;;5013730;28;20036;-73
2022/11/18 03:32:44;;;;;;;5.93;5.05;;;;;;;;;;5013983;28;20033;-73
2022/11/18 03:35:29;;;;;;;5.60;5.10;;;;;;;;;;5014269;28;20044;-73
2022/11/18 03:37:59;;;;;;;5.95;5.35;;;;;;;;;;5013111;28;20336;-73
2022/11/18 03:40:28;;;;;;;5.50;4.95;;;;;;;;;;5013811;28;20010;-73
2022/11/18 03:43:23;;;;;;;5.97;5.38;;;;;;;;;;5012410;28;20060;-73
2022/11/18 03:45:55;;;;;;;6.10;5.00;;;;;;;;;;5001033;28;20053;-73
2022/11/18 03:48:44;;;;;;;23.45;14.68;;;;;;;;;;5013051;28;20033;-73
2022/11/18 03:51:12;;;;;;;11.63;10.73;;;;;;;;;;4999601;28;20052;-73
2022/11/18 03:53:39;;;;;;;13.82;12.52;;;;;;;;;;5013549;28;20022;-73
2022/11/18 03:56:09;;;;;;;11.25;10.13;;;;;;;;;;5012715;28;20033;-73
2022/11/18 03:58:38;;;;;;;6.40;5.80;;;;;;;;;;5016115;28;20033;-73
2022/11/18 04:01:08;;;;;;;7.40;6.57;;;;;;;;;;5017934;28;20100;-73
2022/11/18 04:03:34;;;;;;;6.03;5.50;;;;;;;;;;5017688;28;20033;-73
2022/11/18 04:06:07;;;;;;;7.28;6.55;;;;;;;;;;5017339;28;20363;-73
2022/11/18 04:08:35;;;;;;;6.10;5.50;;;;;;;;;;5017336;28;20033;-73
2022/11/18 04:11:03;;;;;;;8.15;7.43;;;;;;;;;;5017650;28;20121;-73
2022/11/18 04:13:33;;;;;;;8.68;7.88;;;;;;;;;;5015796;28;20508;-73
2022/11/18 04:15:59;;;;;;;7.28;6.65;;;;;;;;;;5016972;28;20025;-73
2022/11/18 04:18:24;;;;;;;5.57;5.00;;;;;;;;;;5017246;28;20072;-73
2022/11/18 04:20:49;;;;;;;7.18;6.57;;;;;;;;;;5017146;28;20021;-74
2022/11/18 04:23:15;;;;;;;6.78;6.18;;;;;;;;;;5016620;28;20058;-73
2022/11/18 04:25:40;;;;;;;6.30;5.70;;;;;;;;;;5015584;28;20034;-73
2022/11/18 04:28:05;;;;;;;7.72;7.13;;;;;;;;;;5016755;28;20041;-73
2022/11/18 04:30:31;;;;;;;7.65;6.75;;;;;;;;;;5017018;28;20306;-73
2022/11/18 04:32:57;;;;;;;9.80;8.75;;;;;;;;;;5015510;28;20034;-73
2022/11/18 04:35:22;;;;;;;7.57;6.90;;;;;;;;;;5016555;28;20096;-73
2022/11/18 04:37:48;;;;;;;8.90;7.90;;;;;;;;;;5017161;28;20065;-73
2022/11/18 04:40:13;;;;;;;6.95;6.28;;;;;;;;;;5016795;28;20097;-73
2022/11/18 04:42:39;;;;;;;7.70;6.90;;;;;;;;;;5016476;28;20041;-73
2022/11/18 04:45:05;;;;;;;9.32;7.30;;;;;;;;;;5016669;28;20030;-73
2022/11/18 04:47:30;;;;;;;6.72;6.10;;;;;;;;;;5017016;28;20029;-74
2022/11/18 04:49:55;;;;;;;7.15;6.45;;;;;;;;;;5016575;28;20041;-73
2022/11/18 04:52:21;;;;;;;7.43;6.47;;;;;;;;;;5017154;28;20034;-73
2022/11/18 04:54:46;;;;;;;7.78;6.18;;;;;;;;;;5016146;28;20108;-73
2022/11/18 04:57:12;;;;;;;14.30;12.88;;;;;;;;;;5016481;28;20040;-74
2022/11/18 04:59:37;;;;;;;8.60;7.65;;;;;;;;;;5016473;28;20025;-74
2022/11/18 05:02:03;;;;;;;9.10;8.20;;;;;;;;;;5014871;28;20041;-74
2022/11/18 05:04:29;;;;;;;8.77;6.78;;;;;;;;;;5016361;28;20022;-73
2022/11/18 05:06:55;;;;;;;10.63;8.63;;;;;;;;;;5015834;28;20033;-74
2022/11/18 05:09:20;;;;;;;8.30;7.55;;;;;;;;;;5016112;28;20025;-74
2022/11/18 05:14:30;;;;;;;16.58;13.57;;;;;;;;;;5016469;28;20117;-73
2022/11/18 05:16:56;;;;;;;9.88;8.85;;;;;;;;;;5015503;28;20108;-73
2022/11/18 05:19:22;;;;;;;15.13;11.80;;;;;;;;;;5016055;28;20026;-73
2022/11/18 05:21:47;;;;;;;13.90;10.65;;;;;;;;;;5014530;28;20041;-72
2022/11/18 05:24:14;;;;;;;15.10;9.63;;;;;;;;;;5015624;28;20069;-73
2022/11/18 05:26:40;;;;;;;16.35;12.40;;;;;;;;;;5015774;28;20105;-71
2022/11/18 05:29:05;;;;;;;13.88;10.05;;;;;;;;;;5014360;28;20141;-71
2022/11/18 05:31:32;;;;;;;11.98;8.70;;;;;;;;;;5015226;28;20025;-71
2022/11/18 05:33:58;;;;;;;14.23;10.65;;;;;;;;;;5015761;28;20030;-71
2022/11/18 05:36:23;;;;;;;13.27;9.52;;;;;;;;;;5015398;28;20028;-71
2022/11/18 05:38:49;;;;;;;17.80;12.77;;;;;;;;;;5015424;28;20022;-71
2022/11/18 05:43:09;;;;;;;14.13;10.60;;;;;;;;;;5015646;28;20032;-71
2022/11/18 05:44:00;;;;;;;16.67;11.25;;;;;;;;;;5015324;28;20034;-71
2022/11/18 05:46:26;;;;;;;12.60;9.52;;;;;;;;;;5015581;28;20022;-71
2022/11/18 05:48:51;;;;;;;16.00;10.35;;;;;;;;;;5014673;28;20371;-72
2022/11/18 05:51:17;;;;;;;12.90;9.85;;;;;;;;;;5014977;28;20040;-71
2022/11/18 05:53:44;;;;;;;12.45;9.45;;;;;;;;;;5014791;28;20120;-72
2022/11/18 05:56:10;;;;;;;11.57;9.20;;;;;;;;;;5013962;28;20064;-72
2022/11/18 05:58:37;;;;;;;13.45;9.95;;;;;;;;;;5014761;28;20026;-72
2022/11/18 06:01:04;;;;;;;14.40;10.25;;;;;;;;;;5014504;28;20022;-72
2022/11/18 06:03:30;;;;;;;9.85;7.90;;;;;;;;;;5014456;28;20068;-75
2022/11/18 06:05:57;;;;;;;10.63;8.07;;;;;;;;;;5013079;28;20367;-73
2022/11/18 06:08:24;;;;;;;12.35;8.27;;;;;;;;;;5014580;28;20040;-73
2022/11/18 06:10:50;;;;;;;11.77;8.57;;;;;;;;;;5013853;28;20053;-73
2022/11/18 06:13:18;;;;;;;10.15;7.50;;;;;;;;;;5013532;28;20030;-73
2022/11/18 06:15:44;;;;;;;9.48;6.72;;;;;;;;;;5013658;28;20084;-73
2022/11/18 06:18:22;;;;;;;8.38;6.93;;;;;;;;;;5013695;28;20026;-73
2022/11/18 06:20:48;;;;;;;7.30;5.97;;;;;;;;;;5013303;28;20037;-73
2022/11/18 06:23:13;;;;;;;8.95;6.45;;;;;;;;;;5011779;28;20025;-73
2022/11/18 06:25:39;;;;;;;7.07;6.38;;;;;;;;;;5013237;28;20065;-73
2022/11/18 06:28:04;;;;;;;11.55;8.55;;;;;;;;;;5013299;28;20026;-73
2022/11/18 06:30:29;;;;;;;9.68;7.07;;;;;;;;;;5013451;28;20430;-73
2022/11/18 06:32:55;;;;;;;12.32;9.20;;;;;;;;;;5012992;28;20026;-73
2022/11/18 06:35:20;;;;;;;9.30;7.32;;;;;;;;;;5014097;28;20056;-73
2022/11/18 06:37:45;;;;;;;8.35;6.47;;;;;;;;;;5013113;28;20048;-73
2022/11/18 06:40:11;;;;;;;9.43;7.30;;;;;;;;;;5014317;28;20030;-73
2022/11/18 06:45:20;;;;;;;91.68;64.78;;;;;;;;;;5014380;28;20041;-73
2022/11/18 06:47:46;;;;;;;13.48;10.30;;;;;;;;;;5014193;28;20022;-73
2022/11/18 06:50:11;;;;;;;9.10;7.65;;;;;;;;;;5014778;28;20474;-73
2022/11/18 06:52:37;;;;;;;9.18;7.28;;;;;;;;;;5012907;28;20410;-73
2022/11/18 06:55:05;;;;;;;10.32;8.30;;;;;;;;;;5013992;28;20394;-73
2022/11/18 06:57:30;;;;;;;79.82;45.25;;;;;;;;;;5014657;28;20022;-73
2022/11/18 06:59:57;;;;;;;20.92;14.10;;;;;;;;;;5014015;28;20471;-73
2022/11/18 07:02:22;;;;;;;16.42;12.02;;;;;;;;;;5014014;28;20026;-73
2022/11/18 07:04:48;;;;;;;17.45;11.80;;;;;;;;;;5014098;28;20084;-73
2022/11/18 07:07:13;;;;;;;102.07;57.30;;;;;;;;;;5012697;28;20029;-73
2022/11/18 07:09:38;;;;;;;45.42;24.85;;;;;;;;;;5014693;28;20036;-73
2022/11/18 07:12:04;;;;;;;155.05;81.05;;;;;;;;;;5015709;28;20450;-73
2022/11/18 07:14:29;;;;;;;215.57;93.50;;;;;;;;;;5015271;28;20022;-73
2022/11/18 07:16:54;;;;;;;103.80;52.10;;;;;;;;;;5015125;28;20018;-73
2022/11/18 07:19:20;;;;;;;63.75;47.53;;;;;;;;;;5013890;28;20109;-73
2022/11/18 07:21:46;;;;;;;81.82;63.25;;;;;;;;;;5012516;28;20084;-73
2022/11/18 07:24:13;;;;;;;40.90;28.55;;;;;;;;;;5013631;28;20069;-73
2022/11/18 07:26:38;;;;;;;24.02;16.38;;;;;;;;;;5014091;28;20108;-73
2022/11/18 07:29:03;;;;;;;13.13;9.35;;;;;;;;;;5014037;28;20446;-73
2022/11/18 07:31:29;;;;;;;11.98;9.38;;;;;;;;;;5015009;28;20036;-73
2022/11/18 07:33:54;;;;;;;30.17;25.08;;;;;;;;;;5017755;28;20108;-73
2022/11/18 07:36:21;;;;;;;10.25;8.25;;;;;;;;;;5000104;28;20152;-73
2022/11/18 07:38:46;;;;;;;185.65;76.45;;;;;;;;;;5017210;28;20393;-73
2022/11/18 07:41:13;;;;;;;298.02;140.45;;;;;;;;;;5017637;28;20021;-73
2022/11/18 07:43:39;;;;;;;15.18;12.15;;;;;;;;;;5017898;28;20385;-73
2022/11/18 07:46:30;;;;;;;93.75;58.90;;;;;;;;;;5017592;28;20022;-73
2022/11/18 07:48:56;;;;;;;121.75;82.28;;;;;;;;;;5013919;28;20042;-73
2022/11/18 07:51:23;;;;;;;32.10;26.48;;;;;;;;;;5017474;28;20026;-73
2022/11/18 07:53:48;;;;;;;13.82;11.80;;;;;;;;;;5016685;28;20030;-73
2022/11/18 07:56:14;;;;;;;24.05;18.88;;;;;;;;;;5017616;28;20176;-73
2022/11/18 07:58:40;;;;;;;13.45;10.60;;;;;;;;;;5017576;28;20045;-73
2022/11/18 08:01:10;;;;;;;115.28;57.67;;;;;;;;;;5017303;28;20017;-73
2022/11/18 08:03:35;;;;;;;27.20;19.45;;;;;;;;;;5015981;28;20026;-73
2022/11/18 08:06:01;;;;;;;16.48;13.95;;;;;;;;;;5017457;28;20024;-73
2022/11/18 08:08:26;;;;;;;14.88;12.30;;;;;;;;;;5017144;28;20116;-73
2022/11/18 08:10:56;;;;;;;17.00;14.77;;;;;;;;;;5017116;28;20030;-73
2022/11/18 08:13:21;;;;;;;18.77;15.75;;;;;;;;;;5017384;28;20030;-73
2022/11/18 08:15:46;;;;;;;21.52;17.45;;;;;;;;;;5016035;28;20492;-73
2022/11/18 08:18:12;;;;;;;23.55;18.02;;;;;;;;;;5017298;28;20037;-73
2022/11/18 08:20:37;;;;;;;22.70;19.67;;;;;;;;;;5015729;28;20056;-73
2022/11/18 08:23:03;;;;;;;15.23;12.32;;;;;;;;;;5015465;28;20054;-73
2022/11/18 08:25:28;;;;;;;56.15;34.60;;;;;;;;;;5015969;28;20391;-73
2022/11/18 08:27:54;;;;;;;174.63;97.53;;;;;;;;;;5016758;28;20445;-73
2022/11/18 08:30:19;;;;;;;117.53;77.32;;;;;;;;;;5017314;28;20022;-73
2022/11/18 08:32:44;;;;;;;55.05;39.13;;;;;;;;;;5017018;28;20021;-73
2022/11/18 08:35:10;;;;;;;39.22;28.27;;;;;;;;;;5015556;28;20072;-73
2022/11/18 08:37:35;;;;;;;24.23;17.67;;;;;;;;;;5016943;28;20041;-73
2022/11/18 08:40:01;;;;;;;30.48;22.60;;;;;;;;;;5016868;28;20077;-74
2022/11/18 08:42:26;;;;;;;29.92;21.85;;;;;;;;;;5016574;28;20029;-73
2022/11/18 08:44:52;;;;;;;31.95;25.33;;;;;;;;;;5015380;28;20042;-73
2022/11/18 08:47:17;;;;;;;26.88;19.17;;;;;;;;;;5017032;28;20093;-73
2022/11/18 08:49:42;;;;;;;36.10;28.02;;;;;;;;;;5016329;28;20037;-73
2022/11/18 08:52:08;;;;;;;29.63;24.27;;;;;;;;;;5015327;28;20024;-74
2022/11/18 08:54:33;;;;;;;20.75;15.95;;;;;;;;;;5016556;28;20048;-73
2022/11/18 08:56:59;;;;;;;113.30;60.60;;;;;;;;;;5014916;28;20466;-73
2022/11/18 08:59:24;;;;;;;100.15;56.22;;;;;;;;;;5016516;28;20030;-73
2022/11/18 09:01:50;;;;;;;150.45;91.35;;;;;;;;;;5014928;28;20018;-73
2022/11/18 09:04:15;;;;;;;26.65;20.30;;;;;;;;;;5014872;28;20021;-73
2022/11/18 09:06:40;;;;;;;96.72;62.95;;;;;;;;;;5014939;28;20477;-73
2022/11/18 09:09:06;;;;;;;39.15;27.20;;;;;;;;;;5016583;28;20117;-73
2022/11/18 09:11:32;;;;;;;40.45;30.15;;;;;;;;;;5016738;28;20032;-73
2022/11/18 09:13:58;;;;;;;17.75;12.93;;;;;;;;;;5015943;28;20415;-73
2022/11/18 09:16:23;;;;;;;17.77;15.68;;;;;;;;;;5016129;28;20047;-72
2022/11/18 09:18:50;;;;;;;14.10;12.38;;;;;;;;;;5016080;28;20038;-72
2022/11/18 09:21:15;;;;;;;16.33;13.00;;;;;;;;;;5015939;28;20036;-72
2022/11/18 09:23:41;;;;;;;34.08;23.58;;;;;;;;;;5011456;28;20473;-72
2022/11/18 09:26:07;;;;;;;21.70;18.65;;;;;;;;;;5014816;28;20042;-72
2022/11/18 09:28:33;;;;;;;21.48;19.17;;;;;;;;;;5016204;28;20030;-73
2022/11/18 09:31:02;;;;;;;69.47;39.10;;;;;;;;;;5015601;28;20390;-72
2022/11/18 09:33:27;;;;;;;63.85;32.55;;;;;;;;;;5015849;28;20351;-72
2022/11/18 09:35:52;;;;;;;68.38;38.10;;;;;;;;;;5014177;28;20044;-72
2022/11/18 09:38:18;;;;;;;47.03;29.00;;;;;;;;;;5015752;28;20022;-72
2022/11/18 09:41:04;;;;;;;47.42;28.40;;;;;;;;;;5015414;28;20029;-72
2022/11/18 09:43:51;;;;;;;20.17;16.95;;;;;;;;;;5013956;28;20084;-72
2022/11/18 09:46:21;;;;;;;17.25;14.10;;;;;;;;;;5014068;28;20072;-71
2022/11/18 09:51:49;;;;;;;17.40;13.63;;;;;;;;;;4993870;28;20410;-72
2022/11/18 09:54:19;;;;;;;15.70;13.85;;;;;;;;;;5009813;28;20037;-72
2022/11/18 09:56:45;;;;;;;27.05;24.05;;;;;;;;;;5015079;28;20500;-72
2022/11/18 09:59:13;;;;;;;24.15;19.80;;;;;;;;;;5014275;28;20026;-73
2022/11/18 10:01:38;;;;;;;21.77;19.52;;;;;;;;;;5015336;28;20033;-73
2022/11/18 10:04:03;;;;;;;18.42;14.70;;;;;;;;;;5014037;28;20033;-73
2022/11/18 10:06:30;;;;;;;46.15;29.92;;;;;;;;;;5016222;28;20040;-73
2022/11/18 10:09:04;;;;;;;31.15;20.63;;;;;;;;;;5016154;28;20024;-73
2022/11/18 10:11:36;;;;;;;19.65;14.95;;;;;;;;;;5015166;28;20095;-73
2022/11/18 10:14:40;;;;;;;19.33;17.17;;;;;;;;;;5015093;28;20037;-73
2022/11/18 10:17:26;;;;;;;52.20;29.40;;;;;;;;;;4919244;29;20043;-73
2022/11/18 10:20:11;;;;;;;35.10;19.70;;;;;;;;;;4934780;29;20051;-73
2022/11/18 10:22:45;;;;;;;47.83;27.80;;;;;;;;;;4993193;28;20121;-73
2022/11/18 10:25:15;;;;;;;21.15;17.90;;;;;;;;;;5013344;28;20029;-73
2022/11/18 10:27:41;;;;;;;60.10;27.92;;;;;;;;;;5013687;28;20017;-73
2022/11/18 10:30:14;;;;;;;54.80;28.23;;;;;;;;;;5014841;28;20026;-73
2022/11/18 10:32:52;;;;;;;30.17;16.90;;;;;;;;;;5013612;28;20123;-73
2022/11/18 10:35:22;;;;;;;20.73;15.23;;;;;;;;;;5014681;28;20026;-73
2022/11/18 10:38:00;;;;;;;46.35;24.08;;;;;;;;;;5014676;28;20030;-73
2022/11/18 10:40:26;;;;;;;27.92;17.60;;;;;;;;;;5014664;28;20040;-73
2022/11/18 10:42:51;;;;;;;33.95;20.75;;;;;;;;;;5013460;28;20058;-73
2022/11/18 10:45:20;;;;;;;69.32;38.35;;;;;;;;;;5013066;28;20092;-73
2022/11/18 10:48:04;;;;;;;42.97;29.02;;;;;;;;;;5013367;28;20026;-73
2022/11/18 10:50:34;;;;;;;33.55;20.40;;;;;;;;;;5013001;28;20038;-73
2022/11/18 10:53:00;;;;;;;36.85;24.25;;;;;;;;;;5013321;28;20042;-73
2022/11/18 10:58:29;;;;;;;53.22;39.13;;;;;;;;;;4964112;23;20402;-72
2022/11/18 11:01:18;;;;;;;74.20;40.35;;;;;;;;;;4956090;28;20109;-71
2022/11/18 11:03:56;;;;;;;68.60;39.08;;;;;;;;;;4975564;28;20038;-72
2022/11/18 11:06:22;;;;;;;97.68;54.88;;;;;;;;;;4957416;28;20435;-72
2022/11/18 11:12:01;;;;;;;31.75;21.38;;;;;;;;;;5040447;23;20089;-74
2022/11/18 11:14:43;;;;;;;40.85;24.63;;;;;;;;;;5013771;28;20026;-74
2022/11/18 11:17:09;;;;;;;31.98;18.58;;;;;;;;;;5014361;28;20030;-74
2022/11/18 11:19:44;;;;;;;48.95;32.08;;;;;;;;;;5012646;28;20355;-74
2022/11/18 11:22:10;;;;;;;36.15;23.52;;;;;;;;;;5014111;28;20030;-75
2022/11/18 11:24:36;;;;;;;20.27;16.15;;;;;;;;;;5014075;28;20473;-75
2022/11/18 11:27:24;;;;;;;35.08;21.25;;;;;;;;;;5013764;28;20042;-74
2022/11/18 11:29:50;;;;;;;38.85;23.13;;;;;;;;;;5014145;28;20084;-74
2022/11/18 11:32:24;;;;;;;17.53;13.10;;;;;;;;;;5012860;28;20021;-73
2022/11/18 11:34:55;;;;;;;87.95;37.92;;;;;;;;;;5013942;28;20652;-73
2022/11/18 11:37:26;;;;;;;40.13;19.80;;;;;;;;;;5013916;28;20034;-73
2022/11/18 11:39:51;;;;;;;;;;;;;;;;;;5014366;28;20105;-73
2022/11/18 11:42:35;;;;;;;31.23;17.23;;;;;;;;;;5013629;28;19944;-73
2022/11/18 11:45:12;;;;;;;25.23;15.63;;;;;;;;;;5013204;28;20049;-73
2022/11/18 11:47:46;;;;;;;21.13;14.15;;;;;;;;;;5014695;28;20034;-73
2022/11/18 11:50:21;;;;;;;25.02;16.20;;;;;;;;;;5012989;28;20038;-73
2022/11/18 11:52:50;;;;;;;19.00;14.55;;;;;;;;;;5012290;28;20025;-73
2022/11/18 11:55:28;;;;;;;28.33;19.10;;;;;;;;;;5013736;28;20030;-73
2022/11/18 11:58:11;;;;;;;34.17;24.52;;;;;;;;;;5012228;28;20035;-73
2022/11/18 12:00:43;;;;;;;19.52;13.50;;;;;;;;;;5012198;28;20029;-73
2022/11/18 12:03:14;;;;;;;19.45;14.30;;;;;;;;;;5013733;28;20029;-73
2022/11/18 12:05:41;;;;;;;31.27;20.35;;;;;;;;;;5012163;28;20034;-73
2022/11/18 12:08:21;;;;;;;30.63;18.20;;;;;;;;;;5013666;28;20022;-74
2022/11/18 12:11:02;;;;;;;23.95;17.52;;;;;;;;;;5013541;28;20459;-74
2022/11/18 12:13:42;;;;;;;21.40;14.00;;;;;;;;;;5013617;28;20107;-74
2022/11/18 12:16:26;;;;;;;19.83;14.53;;;;;;;;;;5013863;28;20420;-75
2022/11/18 12:18:58;;;;;;;36.58;24.13;;;;;;;;;;5015302;28;20034;-75
2022/11/18 12:21:43;;;;;;;59.80;35.70;;;;;;;;;;5017469;28;20045;-74
2022/11/18 12:24:26;;;;;;;32.75;24.90;;;;;;;;;;5015663;28;20049;-74
2022/11/18 12:26:51;;;;;;;64.82;41.35;;;;;;;;;;5016818;28;20030;-74
2022/11/18 12:29:17;;;;;;;36.35;24.10;;;;;;;;;;5017089;28;20382;-73
2022/11/18 12:31:42;;;;;;;56.78;31.15;;;;;;;;;;5017064;28;20466;-73
2022/11/18 12:34:19;;;;;;;76.90;43.55;;;;;;;;;;5015797;28;20025;-73
2022/11/18 12:36:44;;;;;;;143.32;72.72;;;;;;;;;;5016863;28;20037;-73
2022/11/18 12:39:39;;;;;;;61.95;33.50;;;;;;;;;;5016659;28;20378;-73
2022/11/18 12:44:49;;;;;;;116.60;56.42;;;;;;;;;;5015238;28;20041;-73
2022/11/18 12:47:15;;;;;;;98.82;47.60;;;;;;;;;;5016407;28;20533;-73
2022/11/18 12:49:44;;;;;;;190.85;90.43;;;;;;;;;;5014855;28;20087;-73
2022/11/18 12:52:27;;;;;;;26.80;22.40;;;;;;;;;;4996787;28;20022;-73
2022/11/18 12:54:53;;;;;;;111.78;68.75;;;;;;;;;;5015387;28;20042;-71
2022/11/18 12:57:22;;;;;;;176.15;95.25;;;;;;;;;;5015173;28;20118;-72
2022/11/18 12:59:49;;;;;;;105.97;58.70;;;;;;;;;;5015400;28;20065;-71
2022/11/18 13:02:20;;;;;;;87.80;49.25;;;;;;;;;;5015073;28;20044;-71
2022/11/18 13:05:02;;;;;;;60.35;36.00;;;;;;;;;;5014718;28;20033;-71
2022/11/18 13:10:23;;;;;;;58.58;39.58;;;;;;;;;;5006479;28;20486;-71
2022/11/18 13:12:49;;;;;;;123.10;63.43;;;;;;;;;;5013647;28;20494;-72
2022/11/18 13:18:15;;;;;;;98.32;48.10;;;;;;;;;;5014480;28;20030;-72
2022/11/18 13:20:41;;;;;;;49.78;26.45;;;;;;;;;;5013364;28;20025;-72
2022/11/18 13:26:16;;;;;;;102.05;54.30;;;;;;;;;;5014538;28;20034;-72
2022/11/18 13:28:53;;;;;;;87.22;45.65;;;;;;;;;;5014388;28;20508;-72
2022/11/18 13:31:31;;;;;;;63.20;33.30;;;;;;;;;;5013210;28;20057;-72
2022/11/18 13:34:00;;;;;;;78.15;37.20;;;;;;;;;;5012809;28;20461;-72
2022/11/18 13:36:27;;;;;;;77.45;47.83;;;;;;;;;;5014405;28;20030;-72
2022/11/18 13:38:56;;;;;;;37.78;28.90;;;;;;;;;;5014657;28;20196;-72
2022/11/18 13:41:23;;;;;;;53.78;37.83;;;;;;;;;;5013408;28;20044;-72
2022/11/18 13:43:49;;;;;;;121.00;76.10;;;;;;;;;;5014023;28;20018;-72
2022/11/18 13:46:29;;;;;;;149.02;84.95;;;;;;;;;;5030863;22;20054;-71
2022/11/18 13:48:58;;;;;;;51.45;30.80;;;;;;;;;;4995134;28;20057;-71
2022/11/18 13:51:24;;;;;;;70.20;54.50;;;;;;;;;;4996936;28;20022;-72
2022/11/18 13:53:50;;;;;;;82.68;55.85;;;;;;;;;;5014446;28;20539;-72
2022/11/18 13:56:20;;;;;;;39.10;26.30;;;;;;;;;;5013764;28;20026;-72
2022/11/18 13:58:49;;;;;;;36.40;29.20;;;;;;;;;;4996203;28;20026;-72
2022/11/18 14:01:33;;;;;;;45.65;33.60;;;;;;;;;;5013899;28;20390;-73
2022/11/18 14:04:01;;;;;;;38.55;27.33;;;;;;;;;;4996294;28;20103;-72
2022/11/18 14:06:28;;;;;;;32.45;21.17;;;;;;;;;;4996323;28;20028;-72
2022/11/18 14:09:24;;;;;;;36.53;24.13;;;;;;;;;;5013693;28;20034;-72
2022/11/18 14:12:00;;;;;;;23.45;17.70;;;;;;;;;;5000844;28;20061;-71
2022/11/18 14:14:27;;;;;;;85.68;48.72;;;;;;;;;;5013653;28;20030;-71
2022/11/18 14:16:52;;;;;;;34.10;22.73;;;;;;;;;;4996083;28;20497;-71
2022/11/18 14:19:29;;;;;;;53.83;32.50;;;;;;;;;;4996165;28;20069;-71
2022/11/18 14:22:01;;;;;;;50.25;33.95;;;;;;;;;;5013276;28;20026;-71
2022/11/18 14:24:27;;;;;;;46.22;31.52;;;;;;;;;;5014887;28;20459;-71
2022/11/18 14:26:54;;;;;;;32.95;23.52;;;;;;;;;;5014092;28;20116;-71
2022/11/18 14:29:21;;;;;;;64.18;41.40;;;;;;;;;;5012704;28;20029;-71
2022/11/18 14:32:22;;;;;;;108.18;56.58;;;;;;;;;;4994963;28;20042;-71
2022/11/18 14:35:00;;;;;;;124.80;66.25;;;;;;;;;;4935894;29;20078;-71
2022/11/18 14:37:26;;;;;;;109.30;64.60;;;;;;;;;;4987989;28;20041;-71
2022/11/18 14:39:55;;;;;;;82.78;46.60;;;;;;;;;;4995293;28;20029;-71
2022/11/18 14:42:22;;;;;;;65.68;39.67;;;;;;;;;;5013906;28;20017;-71
2022/11/18 14:44:48;;;;;;;69.07;34.65;;;;;;;;;;5027062;23;20054;-71
2022/11/18 14:47:16;;;;;;;52.72;30.77;;;;;;;;;;5014328;28;20044;-72
2022/11/18 14:49:41;;;;;;;28.90;21.83;;;;;;;;;;5014570;28;20033;-72
2022/11/18 14:52:09;;;;;;;89.38;43.92;;;;;;;;;;5014757;28;20030;-72
2022/11/18 14:54:34;;;;;;;71.97;36.50;;;;;;;;;;5014167;28;20033;-72
2022/11/18 14:57:01;;;;;;;101.32;52.53;;;;;;;;;;5012603;28;20398;-71
2022/11/18 14:59:26;;;;;;;60.63;36.47;;;;;;;;;;5014659;28;20014;-71
2022/11/18 15:01:52;;;;;;;53.05;27.83;;;;;;;;;;5012802;28;20504;-71
2022/11/18 15:04:19;;;;;;;74.80;39.90;;;;;;;;;;5013394;28;20366;-71
2022/11/18 15:06:45;;;;;;;55.35;30.52;;;;;;;;;;5013110;28;20041;-71
2022/11/18 15:09:10;;;;;;;28.40;21.05;;;;;;;;;;5012948;28;20021;-71